sensor_id;sensor_type;location;lat;lon;timestamp;P1;durP1;ratioP1;P2;durP2;ratioP2
21639;SDS011;10981;45.462;10.974;2023-09-18T00:02:26;25.45;;;15.27;;
21639;SDS011;10981;45.462;10.974;2023-09-18T00:04:56;23.60;;;13.65;;
21639;SDS011;10981;45.462;10.974;2023-09-18T00:07:25;16.83;;;13.45;;
21639;SDS011;10981;45.462;10.974;2023-09-18T00:09:54;16.65;;;13.82;;
21639;SDS011;10981;45.462;10.974;2023-09-18T00:12:22;18.40;;;14.07;;
21639;SDS011;10981;45.462;10.974;2023-09-18T00:14:51;22.73;;;13.70;;
21639;SDS011;10981;45.462;10.974;2023-09-18T00:17:19;19.98;;;11.85;;
21639;SDS011;10981;45.462;10.974;2023-09-18T00:19:48;17.90;;;13.65;;
21639;SDS011;10981;45.462;10.974;2023-09-18T00:22:18;18.05;;;12.43;;
21639;SDS011;10981;45.462;10.974;2023-09-18T00:24:48;19.23;;;13.23;;
21639;SDS011;10981;45.462;10.974;2023-09-18T00:27:16;18.25;;;13.65;;
21639;SDS011;10981;45.462;10.974;2023-09-18T00:29:45;17.75;;;12.63;;
21639;SDS011;10981;45.462;10.974;2023-09-18T00:32:13;22.88;;;15.40;;
21639;SDS011;10981;45.462;10.974;2023-09-18T00:34:41;18.38;;;13.48;;
21639;SDS011;10981;45.462;10.974;2023-09-18T00:37:10;17.35;;;14.55;;
21639;SDS011;10981;45.462;10.974;2023-09-18T00:39:41;19.90;;;14.80;;
21639;SDS011;10981;45.462;10.974;2023-09-18T00:42:09;21.98;;;15.55;;
21639;SDS011;10981;45.462;10.974;2023-09-18T00:44:41;23.80;;;13.85;;
21639;SDS011;10981;45.462;10.974;2023-09-18T00:47:09;19.80;;;14.48;;
21639;SDS011;10981;45.462;10.974;2023-09-18T00:49:43;17.23;;;12.73;;
21639;SDS011;10981;45.462;10.974;2023-09-18T00:52:16;16.92;;;13.02;;
21639;SDS011;10981;45.462;10.974;2023-09-18T00:54:46;17.48;;;13.35;;
21639;SDS011;10981;45.462;10.974;2023-09-18T00:57:17;18.10;;;13.50;;
21639;SDS011;10981;45.462;10.974;2023-09-18T00:59:46;20.45;;;14.90;;
21639;SDS011;10981;45.462;10.974;2023-09-18T01:02:14;17.23;;;13.32;;
21639;SDS011;10981;45.462;10.974;2023-09-18T01:04:43;22.08;;;14.32;;
21639;SDS011;10981;45.462;10.974;2023-09-18T01:07:12;18.67;;;14.77;;
21639;SDS011;10981;45.462;10.974;2023-09-18T01:09:40;18.60;;;13.93;;
21639;SDS011;10981;45.462;10.974;2023-09-18T01:12:17;18.38;;;14.70;;
21639;SDS011;10981;45.462;10.974;2023-09-18T01:18:12;23.52;;;16.02;;
21639;SDS011;10981;45.462;10.974;2023-09-18T01:20:41;17.77;;;14.82;;
21639;SDS011;10981;45.462;10.974;2023-09-18T01:23:11;21.05;;;14.40;;
21639;SDS011;10981;45.462;10.974;2023-09-18T01:25:39;22.73;;;15.13;;
21639;SDS011;10981;45.462;10.974;2023-09-18T01:28:07;20.73;;;15.00;;
21639;SDS011;10981;45.462;10.974;2023-09-18T01:30:36;22.67;;;15.07;;
21639;SDS011;10981;45.462;10.974;2023-09-18T01:33:08;19.67;;;14.82;;
21639;SDS011;10981;45.462;10.974;2023-09-18T01:35:37;19.88;;;14.23;;
21639;SDS011;10981;45.462;10.974;2023-09-18T01:38:06;23.17;;;15.45;;
21639;SDS011;10981;45.462;10.974;2023-09-18T01:40:38;22.17;;;14.93;;
21639;SDS011;10981;45.462;10.974;2023-09-18T01:43:06;20.63;;;14.10;;
21639;SDS011;10981;45.462;10.974;2023-09-18T01:45:35;21.27;;;14.25;;
21639;SDS011;10981;45.462;10.974;2023-09-18T01:48:05;18.58;;;14.48;;
21639;SDS011;10981;45.462;10.974;2023-09-18T01:50:33;22.25;;;14.45;;
21639;SDS011;10981;45.462;10.974;2023-09-18T01:53:03;22.35;;;15.63;;
21639;SDS011;10981;45.462;10.974;2023-09-18T01:55:32;25.80;;;16.23;;
21639;SDS011;10981;45.462;10.974;2023-09-18T01:58:00;22.77;;;15.15;;
21639;SDS011;10981;45.462;10.974;2023-09-18T02:00:30;22.90;;;16.63;;
21639;SDS011;10981;45.462;10.974;2023-09-18T02:03:00;24.98;;;17.20;;
21639;SDS011;10981;45.462;10.974;2023-09-18T02:05:51;26.00;;;17.45;;
21639;SDS011;10981;45.462;10.974;2023-09-18T02:08:19;24.38;;;16.27;;
21639;SDS011;10981;45.462;10.974;2023-09-18T02:10:47;23.55;;;16.25;;
21639;SDS011;10981;45.462;10.974;2023-09-18T02:13:16;23.98;;;16.35;;
21639;SDS011;10981;45.462;10.974;2023-09-18T02:15:45;26.63;;;17.95;;
21639;SDS011;10981;45.462;10.974;2023-09-18T02:18:13;29.67;;;17.25;;
21639;SDS011;10981;45.462;10.974;2023-09-18T02:20:43;24.65;;;17.77;;
21639;SDS011;10981;45.462;10.974;2023-09-18T02:23:15;22.60;;;16.67;;
21639;SDS011;10981;45.462;10.974;2023-09-18T02:25:44;23.55;;;17.67;;
21639;SDS011;10981;45.462;10.974;2023-09-18T02:28:14;24.00;;;16.95;;
21639;SDS011;10981;45.462;10.974;2023-09-18T02:30:43;25.90;;;17.83;;
21639;SDS011;10981;45.462;10.974;2023-09-18T02:33:12;22.90;;;16.85;;
21639;SDS011;10981;45.462;10.974;2023-09-18T02:35:42;22.63;;;16.13;;
21639;SDS011;10981;45.462;10.974;2023-09-18T02:38:10;24.50;;;17.83;;
21639;SDS011;10981;45.462;10.974;2023-09-18T02:40:39;22.80;;;16.40;;
21639;SDS011;10981;45.462;10.974;2023-09-18T02:43:07;25.23;;;16.20;;
21639;SDS011;10981;45.462;10.974;2023-09-18T02:45:36;22.52;;;16.70;;
21639;SDS011;10981;45.462;10.974;2023-09-18T02:48:04;21.52;;;16.40;;
21639;SDS011;10981;45.462;10.974;2023-09-18T02:50:33;24.50;;;16.23;;
21639;SDS011;10981;45.462;10.974;2023-09-18T02:53:02;23.25;;;15.63;;
21639;SDS011;10981;45.462;10.974;2023-09-18T02:55:30;23.15;;;15.10;;
21639;SDS011;10981;45.462;10.974;2023-09-18T02:57:59;23.92;;;16.08;;
21639;SDS011;10981;45.462;10.974;2023-09-18T03:00:30;25.08;;;16.65;;
21639;SDS011;10981;45.462;10.974;2023-09-18T03:03:09;21.33;;;15.27;;
21639;SDS011;10981;45.462;10.974;2023-09-18T03:05:39;24.63;;;16.23;;
21639;SDS011;10981;45.462;10.974;2023-09-18T03:08:09;21.25;;;15.88;;
21639;SDS011;10981;45.462;10.974;2023-09-18T03:10:39;23.40;;;16.52;;
21639;SDS011;10981;45.462;10.974;2023-09-18T03:13:10;21.75;;;16.33;;
21639;SDS011;10981;45.462;10.974;2023-09-18T03:15:40;22.73;;;15.25;;
21639;SDS011;10981;45.462;10.974;2023-09-18T03:18:16;27.50;;;15.60;;
21639;SDS011;10981;45.462;10.974;2023-09-18T03:20:45;21.10;;;16.17;;
21639;SDS011;10981;45.462;10.974;2023-09-18T03:23:13;22.95;;;15.75;;
21639;SDS011;10981;45.462;10.974;2023-09-18T03:25:42;18.65;;;14.90;;
21639;SDS011;10981;45.462;10.974;2023-09-18T03:28:19;23.42;;;15.43;;
21639;SDS011;10981;45.462;10.974;2023-09-18T03:30:49;20.42;;;15.02;;
21639;SDS011;10981;45.462;10.974;2023-09-18T03:33:20;22.73;;;15.60;;
21639;SDS011;10981;45.462;10.974;2023-09-18T03:35:49;22.63;;;15.63;;
21639;SDS011;10981;45.462;10.974;2023-09-18T03:38:24;20.48;;;15.15;;
21639;SDS011;10981;45.462;10.974;2023-09-18T03:40:54;24.60;;;15.85;;
21639;SDS011;10981;45.462;10.974;2023-09-18T03:43:22;21.42;;;15.68;;
21639;SDS011;10981;45.462;10.974;2023-09-18T03:45:51;28.65;;;15.75;;
21639;SDS011;10981;45.462;10.974;2023-09-18T03:48:21;21.55;;;16.52;;
21639;SDS011;10981;45.462;10.974;2023-09-18T03:50:50;19.27;;;15.02;;
21639;SDS011;10981;45.462;10.974;2023-09-18T03:53:18;22.20;;;15.98;;
21639;SDS011;10981;45.462;10.974;2023-09-18T03:55:48;20.15;;;15.82;;
21639;SDS011;10981;45.462;10.974;2023-09-18T03:58:16;24.88;;;16.85;;
21639;SDS011;10981;45.462;10.974;2023-09-18T04:00:44;20.27;;;15.88;;
21639;SDS011;10981;45.462;10.974;2023-09-18T04:03:13;20.98;;;16.05;;
21639;SDS011;10981;45.462;10.974;2023-09-18T04:05:41;22.10;;;15.85;;
21639;SDS011;10981;45.462;10.974;2023-09-18T04:08:10;24.80;;;17.38;;
21639;SDS011;10981;45.462;10.974;2023-09-18T04:10:38;21.75;;;16.15;;
21639;SDS011;10981;45.462;10.974;2023-09-18T04:13:06;25.10;;;17.30;;
21639;SDS011;10981;45.462;10.974;2023-09-18T04:15:35;23.35;;;17.08;;
21639;SDS011;10981;45.462;10.974;2023-09-18T04:18:05;27.38;;;16.27;;
21639;SDS011;10981;45.462;10.974;2023-09-18T04:20:33;21.27;;;16.77;;
21639;SDS011;10981;45.462;10.974;2023-09-18T04:23:19;25.10;;;17.65;;
21639;SDS011;10981;45.462;10.974;2023-09-18T04:25:52;19.85;;;15.05;;
21639;SDS011;10981;45.462;10.974;2023-09-18T04:28:22;27.58;;;16.33;;
21639;SDS011;10981;45.462;10.974;2023-09-18T04:30:51;27.88;;;17.35;;
21639;SDS011;10981;45.462;10.974;2023-09-18T04:33:21;21.27;;;16.70;;
21639;SDS011;10981;45.462;10.974;2023-09-18T04:35:49;21.70;;;15.98;;
21639;SDS011;10981;45.462;10.974;2023-09-18T04:38:18;20.70;;;15.90;;
21639;SDS011;10981;45.462;10.974;2023-09-18T04:40:47;22.65;;;16.08;;
21639;SDS011;10981;45.462;10.974;2023-09-18T04:43:15;21.27;;;15.88;;
21639;SDS011;10981;45.462;10.974;2023-09-18T04:45:44;20.27;;;15.82;;
21639;SDS011;10981;45.462;10.974;2023-09-18T04:48:14;21.13;;;15.43;;
21639;SDS011;10981;45.462;10.974;2023-09-18T04:50:43;22.80;;;17.33;;
21639;SDS011;10981;45.462;10.974;2023-09-18T04:53:12;25.88;;;16.65;;
21639;SDS011;10981;45.462;10.974;2023-09-18T04:55:43;25.33;;;16.52;;
21639;SDS011;10981;45.462;10.974;2023-09-18T04:58:16;22.23;;;16.55;;
21639;SDS011;10981;45.462;10.974;2023-09-18T05:00:45;26.33;;;15.52;;
21639;SDS011;10981;45.462;10.974;2023-09-18T05:03:17;19.15;;;15.10;;
21639;SDS011;10981;45.462;10.974;2023-09-18T05:05:45;21.73;;;15.73;;
21639;SDS011;10981;45.462;10.974;2023-09-18T05:08:14;19.63;;;15.73;;
21639;SDS011;10981;45.462;10.974;2023-09-18T05:10:43;22.67;;;16.65;;
21639;SDS011;10981;45.462;10.974;2023-09-18T05:13:11;23.33;;;15.20;;
21639;SDS011;10981;45.462;10.974;2023-09-18T05:15:40;20.08;;;15.52;;
21639;SDS011;10981;45.462;10.974;2023-09-18T05:18:08;22.90;;;15.77;;
21639;SDS011;10981;45.462;10.974;2023-09-18T05:20:37;21.08;;;14.18;;
21639;SDS011;10981;45.462;10.974;2023-09-18T05:23:05;23.52;;;15.18;;
21639;SDS011;10981;45.462;10.974;2023-09-18T05:25:34;21.90;;;15.13;;
21639;SDS011;10981;45.462;10.974;2023-09-18T05:28:05;23.33;;;15.60;;
21639;SDS011;10981;45.462;10.974;2023-09-18T05:30:35;25.60;;;16.90;;
21639;SDS011;10981;45.462;10.974;2023-09-18T05:35:40;23.40;;;16.17;;
21639;SDS011;10981;45.462;10.974;2023-09-18T05:38:11;20.42;;;14.48;;
21639;SDS011;10981;45.462;10.974;2023-09-18T05:40:45;24.10;;;16.20;;
21639;SDS011;10981;45.462;10.974;2023-09-18T05:43:14;21.38;;;15.00;;
21639;SDS011;10981;45.462;10.974;2023-09-18T05:45:42;22.05;;;16.65;;
21639;SDS011;10981;45.462;10.974;2023-09-18T05:48:12;28.67;;;16.75;;
21639;SDS011;10981;45.462;10.974;2023-09-18T05:50:41;26.05;;;16.15;;
21639;SDS011;10981;45.462;10.974;2023-09-18T05:53:09;26.63;;;16.65;;
21639;SDS011;10981;45.462;10.974;2023-09-18T05:55:38;23.55;;;16.55;;
21639;SDS011;10981;45.462;10.974;2023-09-18T05:58:06;21.77;;;16.58;;
21639;SDS011;10981;45.462;10.974;2023-09-18T06:00:35;28.70;;;17.27;;
21639;SDS011;10981;45.462;10.974;2023-09-18T06:03:06;24.73;;;17.27;;
21639;SDS011;10981;45.462;10.974;2023-09-18T06:05:38;26.23;;;17.05;;
21639;SDS011;10981;45.462;10.974;2023-09-18T06:08:07;28.50;;;16.77;;
21639;SDS011;10981;45.462;10.974;2023-09-18T06:10:35;24.65;;;17.17;;
21639;SDS011;10981;45.462;10.974;2023-09-18T06:13:06;24.00;;;16.23;;
21639;SDS011;10981;45.462;10.974;2023-09-18T06:15:35;29.02;;;18.77;;
21639;SDS011;10981;45.462;10.974;2023-09-18T06:18:03;25.20;;;17.38;;
21639;SDS011;10981;45.462;10.974;2023-09-18T06:20:34;25.23;;;17.63;;
21639;SDS011;10981;45.462;10.974;2023-09-18T06:23:02;25.92;;;18.45;;
21639;SDS011;10981;45.462;10.974;2023-09-18T06:25:31;26.50;;;18.23;;
21639;SDS011;10981;45.462;10.974;2023-09-18T06:27:59;31.85;;;19.52;;
21639;SDS011;10981;45.462;10.974;2023-09-18T06:30:30;27.83;;;17.58;;
21639;SDS011;10981;45.462;10.974;2023-09-18T06:33:01;24.80;;;18.40;;
21639;SDS011;10981;45.462;10.974;2023-09-18T06:35:31;29.23;;;17.70;;
21639;SDS011;10981;45.462;10.974;2023-09-18T06:38:00;23.52;;;17.50;;
21639;SDS011;10981;45.462;10.974;2023-09-18T06:40:28;26.50;;;19.33;;
21639;SDS011;10981;45.462;10.974;2023-09-18T06:43:00;25.52;;;18.35;;
21639;SDS011;10981;45.462;10.974;2023-09-18T06:45:28;27.88;;;17.17;;
21639;SDS011;10981;45.462;10.974;2023-09-18T06:47:57;26.65;;;16.77;;
21639;SDS011;10981;45.462;10.974;2023-09-18T06:50:25;24.65;;;17.77;;
21639;SDS011;10981;45.462;10.974;2023-09-18T06:52:54;28.17;;;18.25;;
21639;SDS011;10981;45.462;10.974;2023-09-18T06:55:22;29.25;;;18.98;;
21639;SDS011;10981;45.462;10.974;2023-09-18T06:57:50;23.92;;;17.80;;
21639;SDS011;10981;45.462;10.974;2023-09-18T07:00:19;25.65;;;17.00;;
21639;SDS011;10981;45.462;10.974;2023-09-18T07:02:48;25.38;;;18.20;;
21639;SDS011;10981;45.462;10.974;2023-09-18T07:05:17;25.92;;;17.42;;
21639;SDS011;10981;45.462;10.974;2023-09-18T07:07:45;27.27;;;20.40;;
21639;SDS011;10981;45.462;10.974;2023-09-18T07:10:14;24.60;;;16.60;;
21639;SDS011;10981;45.462;10.974;2023-09-18T07:12:42;22.73;;;16.05;;
21639;SDS011;10981;45.462;10.974;2023-09-18T07:15:11;24.88;;;16.67;;
21639;SDS011;10981;45.462;10.974;2023-09-18T07:17:39;24.45;;;16.13;;
21639;SDS011;10981;45.462;10.974;2023-09-18T07:20:07;19.92;;;14.80;;
21639;SDS011;10981;45.462;10.974;2023-09-18T07:22:44;28.67;;;15.68;;
21639;SDS011;10981;45.462;10.974;2023-09-18T07:25:12;24.45;;;16.67;;
21639;SDS011;10981;45.462;10.974;2023-09-18T07:27:41;32.17;;;17.55;;
21639;SDS011;10981;45.462;10.974;2023-09-18T07:30:14;29.23;;;15.00;;
21639;SDS011;10981;45.462;10.974;2023-09-18T07:32:47;24.13;;;15.25;;
21639;SDS011;10981;45.462;10.974;2023-09-18T07:35:16;46.38;;;17.10;;
21639;SDS011;10981;45.462;10.974;2023-09-18T07:37:44;55.38;;;18.20;;
21639;SDS011;10981;45.462;10.974;2023-09-18T07:40:14;39.40;;;16.92;;
21639;SDS011;10981;45.462;10.974;2023-09-18T07:42:45;21.98;;;13.13;;
21639;SDS011;10981;45.462;10.974;2023-09-18T07:45:14;19.75;;;13.15;;
21639;SDS011;10981;45.462;10.974;2023-09-18T07:47:42;19.88;;;11.02;;
21639;SDS011;10981;45.462;10.974;2023-09-18T07:50:14;17.67;;;11.45;;
21639;SDS011;10981;45.462;10.974;2023-09-18T07:52:45;16.95;;;11.18;;
21639;SDS011;10981;45.462;10.974;2023-09-18T07:55:14;17.50;;;11.02;;
21639;SDS011;10981;45.462;10.974;2023-09-18T07:57:43;16.77;;;11.07;;
21639;SDS011;10981;45.462;10.974;2023-09-18T08:00:12;29.67;;;12.02;;
21639;SDS011;10981;45.462;10.974;2023-09-18T08:02:43;19.02;;;11.82;;
21639;SDS011;10981;45.462;10.974;2023-09-18T08:05:13;18.77;;;10.45;;
21639;SDS011;10981;45.462;10.974;2023-09-18T08:07:43;20.10;;;11.40;;
21639;SDS011;10981;45.462;10.974;2023-09-18T08:10:11;17.55;;;11.98;;
21639;SDS011;10981;45.462;10.974;2023-09-18T08:12:40;21.95;;;12.25;;
21639;SDS011;10981;45.462;10.974;2023-09-18T08:15:08;18.80;;;12.63;;
21639;SDS011;10981;45.462;10.974;2023-09-18T08:17:37;30.02;;;15.68;;
21639;SDS011;10981;45.462;10.974;2023-09-18T08:20:07;23.50;;;14.40;;
21639;SDS011;10981;45.462;10.974;2023-09-18T08:22:41;21.33;;;14.30;;
21639;SDS011;10981;45.462;10.974;2023-09-18T08:25:10;19.10;;;13.60;;
21639;SDS011;10981;45.462;10.974;2023-09-18T08:27:40;25.88;;;15.18;;
21639;SDS011;10981;45.462;10.974;2023-09-18T08:30:12;23.75;;;16.25;;
21639;SDS011;10981;45.462;10.974;2023-09-18T08:32:44;22.02;;;14.88;;
21639;SDS011;10981;45.462;10.974;2023-09-18T08:35:13;24.35;;;14.27;;
21639;SDS011;10981;45.462;10.974;2023-09-18T08:37:42;27.73;;;17.52;;
21639;SDS011;10981;45.462;10.974;2023-09-18T08:40:11;29.02;;;17.98;;
21639;SDS011;10981;45.462;10.974;2023-09-18T08:42:45;29.98;;;18.42;;
21639;SDS011;10981;45.462;10.974;2023-09-18T08:45:19;33.90;;;19.67;;
21639;SDS011;10981;45.462;10.974;2023-09-18T08:47:52;29.25;;;19.67;;
21639;SDS011;10981;45.462;10.974;2023-09-18T08:50:22;31.58;;;22.10;;
21639;SDS011;10981;45.462;10.974;2023-09-18T08:52:52;30.13;;;19.83;;
21639;SDS011;10981;45.462;10.974;2023-09-18T08:55:22;32.10;;;20.63;;
21639;SDS011;10981;45.462;10.974;2023-09-18T08:57:51;30.75;;;20.73;;
21639;SDS011;10981;45.462;10.974;2023-09-18T09:00:22;28.02;;;19.38;;
21639;SDS011;10981;45.462;10.974;2023-09-18T09:02:50;37.17;;;21.33;;
21639;SDS011;10981;45.462;10.974;2023-09-18T09:05:21;24.17;;;17.90;;
21639;SDS011;10981;45.462;10.974;2023-09-18T09:07:53;23.85;;;17.60;;
21639;SDS011;10981;45.462;10.974;2023-09-18T09:10:21;30.20;;;19.08;;
21639;SDS011;10981;45.462;10.974;2023-09-18T09:12:53;23.27;;;16.48;;
21639;SDS011;10981;45.462;10.974;2023-09-18T09:15:29;30.17;;;17.98;;
21639;SDS011;10981;45.462;10.974;2023-09-18T09:18:15;26.88;;;16.67;;
21639;SDS011;10981;45.462;10.974;2023-09-18T09:20:53;23.02;;;16.77;;
21639;SDS011;10981;45.462;10.974;2023-09-18T09:23:28;20.60;;;14.95;;
21639;SDS011;10981;45.462;10.974;2023-09-18T09:26:13;18.45;;;14.60;;
21639;SDS011;10981;45.462;10.974;2023-09-18T09:28:44;27.33;;;16.50;;
21639;SDS011;10981;45.462;10.974;2023-09-18T09:31:26;20.42;;;15.90;;
21639;SDS011;10981;45.462;10.974;2023-09-18T09:33:56;23.42;;;16.70;;
21639;SDS011;10981;45.462;10.974;2023-09-18T09:36:26;28.67;;;18.02;;
21639;SDS011;10981;45.462;10.974;2023-09-18T09:38:57;24.35;;;17.70;;
21639;SDS011;10981;45.462;10.974;2023-09-18T09:41:26;25.42;;;17.75;;
21639;SDS011;10981;45.462;10.974;2023-09-18T09:43:56;25.17;;;18.50;;
21639;SDS011;10981;45.462;10.974;2023-09-18T09:46:25;23.67;;;17.85;;
21639;SDS011;10981;45.462;10.974;2023-09-18T09:49:01;22.63;;;18.25;;
21639;SDS011;10981;45.462;10.974;2023-09-18T09:51:32;28.15;;;19.38;;
21639;SDS011;10981;45.462;10.974;2023-09-18T09:54:02;29.45;;;18.92;;
21639;SDS011;10981;45.462;10.974;2023-09-18T09:56:44;25.08;;;19.50;;
21639;SDS011;10981;45.462;10.974;2023-09-18T09:59:15;26.08;;;16.95;;
21639;SDS011;10981;45.462;10.974;2023-09-18T10:01:47;22.08;;;16.75;;
21639;SDS011;10981;45.462;10.974;2023-09-18T10:04:19;27.90;;;17.38;;
21639;SDS011;10981;45.462;10.974;2023-09-18T10:06:52;22.83;;;17.45;;
21639;SDS011;10981;45.462;10.974;2023-09-18T10:09:41;22.98;;;16.67;;
21639;SDS011;10981;45.462;10.974;2023-09-18T10:12:12;21.85;;;15.38;;
21639;SDS011;10981;45.462;10.974;2023-09-18T10:14:47;23.20;;;14.80;;
21639;SDS011;10981;45.462;10.974;2023-09-18T10:17:28;19.40;;;14.63;;
21639;SDS011;10981;45.462;10.974;2023-09-18T10:20:06;20.60;;;14.18;;
21639;SDS011;10981;45.462;10.974;2023-09-18T10:22:40;21.48;;;13.95;;
21639;SDS011;10981;45.462;10.974;2023-09-18T10:25:14;22.13;;;16.25;;
21639;SDS011;10981;45.462;10.974;2023-09-18T10:27:55;21.83;;;14.20;;
21639;SDS011;10981;45.462;10.974;2023-09-18T10:30:29;18.98;;;14.02;;
21639;SDS011;10981;45.462;10.974;2023-09-18T10:33:01;21.88;;;14.50;;
21639;SDS011;10981;45.462;10.974;2023-09-18T10:35:30;20.50;;;15.05;;
21639;SDS011;10981;45.462;10.974;2023-09-18T10:37:59;19.55;;;13.80;;
21639;SDS011;10981;45.462;10.974;2023-09-18T10:40:35;19.40;;;13.43;;
21639;SDS011;10981;45.462;10.974;2023-09-18T10:43:04;18.58;;;12.98;;
21639;SDS011;10981;45.462;10.974;2023-09-18T10:48:10;16.10;;;12.57;;
21639;SDS011;10981;45.462;10.974;2023-09-18T10:50:41;23.08;;;12.88;;
21639;SDS011;10981;45.462;10.974;2023-09-18T10:53:11;22.63;;;12.88;;
21639;SDS011;10981;45.462;10.974;2023-09-18T10:55:44;15.95;;;12.20;;
21639;SDS011;10981;45.462;10.974;2023-09-18T10:58:12;18.30;;;12.57;;
21639;SDS011;10981;45.462;10.974;2023-09-18T11:00:55;15.17;;;12.53;;
21639;SDS011;10981;45.462;10.974;2023-09-18T11:03:26;15.90;;;12.13;;
21639;SDS011;10981;45.462;10.974;2023-09-18T11:06:07;17.70;;;12.75;;
21639;SDS011;10981;45.462;10.974;2023-09-18T11:11:17;15.45;;;12.95;;
21639;SDS011;10981;45.462;10.974;2023-09-18T11:13:52;18.25;;;13.70;;
21639;SDS011;10981;45.462;10.974;2023-09-18T11:21:30;15.32;;;11.57;;
21639;SDS011;10981;45.462;10.974;2023-09-18T11:24:04;15.82;;;11.77;;
21639;SDS011;10981;45.462;10.974;2023-09-18T11:26:45;16.35;;;12.25;;
21639;SDS011;10981;45.462;10.974;2023-09-18T11:29:16;16.35;;;11.02;;
21639;SDS011;10981;45.462;10.974;2023-09-18T11:34:21;20.77;;;13.07;;
21639;SDS011;10981;45.462;10.974;2023-09-18T11:36:54;18.02;;;12.15;;
21639;SDS011;10981;45.462;10.974;2023-09-18T11:39:32;14.15;;;11.10;;
21639;SDS011;10981;45.462;10.974;2023-09-18T11:42:09;15.48;;;11.15;;
21639;SDS011;10981;45.462;10.974;2023-09-18T11:44:40;14.82;;;10.45;;
21639;SDS011;10981;45.462;10.974;2023-09-18T11:47:10;14.48;;;10.15;;
21639;SDS011;10981;45.462;10.974;2023-09-18T11:49:59;11.95;;;10.18;;
21639;SDS011;10981;45.462;10.974;2023-09-18T11:52:31;17.15;;;10.82;;
21639;SDS011;10981;45.462;10.974;2023-09-18T11:55:01;16.60;;;9.90;;
21639;SDS011;10981;45.462;10.974;2023-09-18T11:57:34;13.40;;;9.98;;
21639;SDS011;10981;45.462;10.974;2023-09-18T12:00:03;16.73;;;10.57;;
21639;SDS011;10981;45.462;10.974;2023-09-18T12:02:39;12.68;;;10.30;;
21639;SDS011;10981;45.462;10.974;2023-09-18T12:05:14;18.77;;;10.57;;
21639;SDS011;10981;45.462;10.974;2023-09-18T12:07:45;13.75;;;10.15;;
21639;SDS011;10981;45.462;10.974;2023-09-18T12:10:14;14.68;;;9.20;;
21639;SDS011;10981;45.462;10.974;2023-09-18T12:12:45;11.88;;;9.30;;
21639;SDS011;10981;45.462;10.974;2023-09-18T12:15:16;17.90;;;10.18;;
21639;SDS011;10981;45.462;10.974;2023-09-18T12:18:06;15.68;;;9.63;;
21639;SDS011;10981;45.462;10.974;2023-09-18T12:20:46;13.10;;;9.23;;
21639;SDS011;10981;45.462;10.974;2023-09-18T12:23:16;14.98;;;9.52;;
21639;SDS011;10981;45.462;10.974;2023-09-18T12:25:48;14.07;;;9.73;;
21639;SDS011;10981;45.462;10.974;2023-09-18T12:28:24;14.50;;;9.85;;
21639;SDS011;10981;45.462;10.974;2023-09-18T12:30:58;15.68;;;9.82;;
21639;SDS011;10981;45.462;10.974;2023-09-18T12:33:36;16.30;;;10.23;;
21639;SDS011;10981;45.462;10.974;2023-09-18T12:36:07;16.70;;;10.57;;
21639;SDS011;10981;45.462;10.974;2023-09-18T12:38:36;15.48;;;10.23;;
21639;SDS011;10981;45.462;10.974;2023-09-18T12:41:05;16.52;;;11.82;;
21639;SDS011;10981;45.462;10.974;2023-09-18T12:43:34;11.27;;;10.13;;
21639;SDS011;10981;45.462;10.974;2023-09-18T12:46:04;16.13;;;11.27;;
21639;SDS011;10981;45.462;10.974;2023-09-18T12:48:38;17.85;;;11.00;;
21639;SDS011;10981;45.462;10.974;2023-09-18T12:51:13;16.05;;;10.90;;
21639;SDS011;10981;45.462;10.974;2023-09-18T12:53:44;17.63;;;11.70;;
21639;SDS011;10981;45.462;10.974;2023-09-18T12:56:15;18.42;;;11.82;;
21639;SDS011;10981;45.462;10.974;2023-09-18T12:58:44;19.73;;;11.93;;
21639;SDS011;10981;45.462;10.974;2023-09-18T13:01:33;16.67;;;11.35;;
21639;SDS011;10981;45.462;10.974;2023-09-18T13:04:03;17.60;;;12.63;;
21639;SDS011;10981;45.462;10.974;2023-09-18T13:06:35;19.15;;;10.93;;
21639;SDS011;10981;45.462;10.974;2023-09-18T13:09:15;16.73;;;12.20;;
21639;SDS011;10981;45.462;10.974;2023-09-18T13:11:56;18.58;;;13.60;;
21639;SDS011;10981;45.462;10.974;2023-09-18T13:14:25;18.52;;;13.80;;
21639;SDS011;10981;45.462;10.974;2023-09-18T13:16:59;17.77;;;12.18;;
21639;SDS011;10981;45.462;10.974;2023-09-18T13:19:31;17.23;;;11.98;;
21639;SDS011;10981;45.462;10.974;2023-09-18T13:22:00;18.30;;;13.35;;
21639;SDS011;10981;45.462;10.974;2023-09-18T13:24:28;18.15;;;12.48;;
21639;SDS011;10981;45.462;10.974;2023-09-18T13:26:58;18.48;;;12.30;;
21639;SDS011;10981;45.462;10.974;2023-09-18T13:29:28;19.77;;;12.57;;
21639;SDS011;10981;45.462;10.974;2023-09-18T13:31:58;22.95;;;13.50;;
21639;SDS011;10981;45.462;10.974;2023-09-18T13:34:27;22.35;;;14.70;;
21639;SDS011;10981;45.462;10.974;2023-09-18T13:36:59;21.27;;;13.85;;
21639;SDS011;10981;45.462;10.974;2023-09-18T13:39:27;20.20;;;13.82;;
21639;SDS011;10981;45.462;10.974;2023-09-18T13:41:55;18.77;;;13.75;;
21639;SDS011;10981;45.462;10.974;2023-09-18T13:44:24;23.52;;;14.50;;
21639;SDS011;10981;45.462;10.974;2023-09-18T13:46:53;19.63;;;14.88;;
21639;SDS011;10981;45.462;10.974;2023-09-18T13:49:22;23.90;;;15.50;;
21639;SDS011;10981;45.462;10.974;2023-09-18T13:51:54;24.08;;;17.15;;
21639;SDS011;10981;45.462;10.974;2023-09-18T13:54:24;25.35;;;16.52;;
21639;SDS011;10981;45.462;10.974;2023-09-18T13:56:55;20.42;;;16.67;;
21639;SDS011;10981;45.462;10.974;2023-09-18T13:59:24;23.75;;;16.83;;
21639;SDS011;10981;45.462;10.974;2023-09-18T14:01:59;27.63;;;16.73;;
21639;SDS011;10981;45.462;10.974;2023-09-18T14:04:27;27.65;;;16.77;;
21639;SDS011;10981;45.462;10.974;2023-09-18T14:06:56;26.17;;;16.88;;
21639;SDS011;10981;45.462;10.974;2023-09-18T14:09:24;26.15;;;17.02;;
21639;SDS011;10981;45.462;10.974;2023-09-18T14:11:52;24.70;;;15.88;;
21639;SDS011;10981;45.462;10.974;2023-09-18T14:14:24;22.83;;;15.52;;
21639;SDS011;10981;45.462;10.974;2023-09-18T14:16:52;23.58;;;17.05;;
21639;SDS011;10981;45.462;10.974;2023-09-18T14:19:24;28.80;;;17.95;;
21639;SDS011;10981;45.462;10.974;2023-09-18T14:21:53;22.85;;;16.92;;
21639;SDS011;10981;45.462;10.974;2023-09-18T14:24:21;19.90;;;15.70;;
21639;SDS011;10981;45.462;10.974;2023-09-18T14:26:52;30.58;;;16.60;;
21639;SDS011;10981;45.462;10.974;2023-09-18T14:29:22;22.83;;;16.98;;
21639;SDS011;10981;45.462;10.974;2023-09-18T14:31:51;24.75;;;17.05;;
21639;SDS011;10981;45.462;10.974;2023-09-18T14:34:22;22.52;;;15.80;;
21639;SDS011;10981;45.462;10.974;2023-09-18T14:36:50;26.70;;;16.48;;
21639;SDS011;10981;45.462;10.974;2023-09-18T14:39:19;22.98;;;15.32;;
21639;SDS011;10981;45.462;10.974;2023-09-18T14:41:47;25.05;;;15.70;;
21639;SDS011;10981;45.462;10.974;2023-09-18T14:44:16;22.48;;;16.75;;
21639;SDS011;10981;45.462;10.974;2023-09-18T14:46:45;25.02;;;15.80;;
21639;SDS011;10981;45.462;10.974;2023-09-18T14:49:13;25.25;;;15.80;;